Time;durP1;ratioP1;P1;durP2;ratioP2;P2;SDS_P1;SDS_P2;PMS_P1;PMS_P2;Temp;Humidity;BMP_temperature;BMP_pressure;BME280_temperature;BME280_humidity;BME280_pressure;Samples;Min_cycle;Max_cycle;Signal;HPM_P1;HPM_P2
2023/10/26 00:02:15;;;;;;;61.05;7.63;;;;;;;;;;5071184;28;20102;-75
2023/10/26 00:04:42;;;;;;;51.03;7.10;;;;;;;;;;5071780;28;20375;-75
2023/10/26 00:07:09;;;;;;;50.53;7.00;;;;;;;;;;5070809;28;20525;-75
2023/10/26 00:09:36;;;;;;;45.50;6.05;;;;;;;;;;5071252;28;20056;-75
2023/10/26 00:12:03;;;;;;;49.35;6.50;;;;;;;;;;5071772;28;20032;-75
2023/10/26 00:14:30;;;;;;;51.65;6.70;;;;;;;;;;5071109;28;20071;-75
2023/10/26 00:16:56;;;;;;;47.00;6.15;;;;;;;;;;5070225;28;20040;-75
2023/10/26 00:19:23;;;;;;;42.55;6.38;;;;;;;;;;5070966;28;20044;-75
2023/10/26 00:21:52;;;;;;;45.40;6.20;;;;;;;;;;5071348;28;20479;-74
2023/10/26 00:24:18;;;;;;;56.25;6.53;;;;;;;;;;5071063;28;20044;-75
2023/10/26 00:26:45;;;;;;;45.15;6.63;;;;;;;;;;5071064;28;20066;-75
2023/10/26 00:29:12;;;;;;;50.97;6.57;;;;;;;;;;5089025;28;20123;-75
2023/10/26 00:31:39;;;;;;;47.95;5.60;;;;;;;;;;5089794;28;20540;-74
2023/10/26 00:34:05;;;;;;;49.22;5.72;;;;;;;;;;5089836;28;20040;-75
2023/10/26 00:36:32;;;;;;;41.67;6.10;;;;;;;;;;5091224;28;20036;-74
2023/10/26 00:38:59;;;;;;;41.65;5.72;;;;;;;;;;5091449;28;20044;-74
2023/10/26 00:41:26;;;;;;;36.97;5.10;;;;;;;;;;5090749;28;20067;-75
2023/10/26 00:43:52;;;;;;;48.65;6.15;;;;;;;;;;5091228;28;20482;-74
2023/10/26 00:46:19;;;;;;;38.92;5.63;;;;;;;;;;5089396;28;20036;-75
2023/10/26 00:48:46;;;;;;;33.45;5.30;;;;;;;;;;5091129;28;20036;-75
2023/10/26 00:51:13;;;;;;;42.08;6.65;;;;;;;;;;5072794;28;20122;-75
2023/10/26 00:53:41;;;;;;;43.10;6.00;;;;;;;;;;5090978;28;20478;-75
2023/10/26 00:56:10;;;;;;;37.25;4.72;;;;;;;;;;5079725;28;20447;-75
2023/10/26 00:58:36;;;;;;;49.75;6.00;;;;;;;;;;5070729;28;20033;-74
2023/10/26 01:01:03;;;;;;;46.30;7.07;;;;;;;;;;5070595;28;20056;-74
2023/10/26 01:03:31;;;;;;;46.40;6.65;;;;;;;;;;5103187;28;20045;-75
2023/10/26 01:05:58;;;;;;;44.50;6.53;;;;;;;;;;5069711;28;20467;-74
2023/10/26 01:08:25;;;;;;;55.55;6.45;;;;;;;;;;5070314;28;20267;-75
2023/10/26 01:10:52;;;;;;;38.22;5.03;;;;;;;;;;5070902;28;20048;-74
2023/10/26 01:13:19;;;;;;;50.17;6.63;;;;;;;;;;5069157;28;20087;-75
2023/10/26 01:15:46;;;;;;;38.28;6.00;;;;;;;;;;5070708;28;20054;-75
2023/10/26 01:18:13;;;;;;;42.17;6.25;;;;;;;;;;5071282;28;20390;-75
2023/10/26 01:20:43;;;;;;;44.35;5.10;;;;;;;;;;5074819;28;20070;-75
2023/10/26 01:23:10;;;;;;;48.65;6.03;;;;;;;;;;5074499;28;20487;-75
2023/10/26 01:25:36;;;;;;;49.42;6.68;;;;;;;;;;5074644;28;20110;-74
2023/10/26 01:28:04;;;;;;;51.85;6.68;;;;;;;;;;5082737;28;20036;-74
2023/10/26 01:30:32;;;;;;;46.30;6.07;;;;;;;;;;5093401;28;20486;-75
2023/10/26 01:32:59;;;;;;;48.65;5.78;;;;;;;;;;5095126;28;20466;-75
2023/10/26 01:35:26;;;;;;;45.08;5.75;;;;;;;;;;5092861;28;20340;-75
2023/10/26 01:37:53;;;;;;;44.47;5.65;;;;;;;;;;5094700;28;20042;-75
2023/10/26 01:40:20;;;;;;;46.65;5.68;;;;;;;;;;5094263;28;20098;-75
2023/10/26 01:42:46;;;;;;;60.17;6.40;;;;;;;;;;5093295;28;20032;-75
2023/10/26 01:45:13;;;;;;;48.42;5.40;;;;;;;;;;5092966;28;20245;-75
2023/10/26 01:47:40;;;;;;;49.67;5.47;;;;;;;;;;5094621;28;20406;-75
2023/10/26 01:50:07;;;;;;;37.50;5.57;;;;;;;;;;5094499;28;20046;-75
2023/10/26 01:52:34;;;;;;;44.58;5.57;;;;;;;;;;5094375;28;20036;-75
2023/10/26 01:55:00;;;;;;;43.40;5.45;;;;;;;;;;5094187;28;20042;-74
2023/10/26 01:57:27;;;;;;;34.67;5.60;;;;;;;;;;5072261;28;20048;-75
2023/10/26 01:59:55;;;;;;;40.17;5.55;;;;;;;;;;5072669;28;20063;-75
2023/10/26 02:02:22;;;;;;;42.28;6.50;;;;;;;;;;5073469;28;20047;-75
2023/10/26 02:04:49;;;;;;;46.05;6.47;;;;;;;;;;5072724;28;20372;-74
2023/10/26 02:07:16;;;;;;;43.33;5.85;;;;;;;;;;5073328;28;20178;-75
2023/10/26 02:09:43;;;;;;;42.90;5.68;;;;;;;;;;5073981;28;20040;-75
2023/10/26 02:12:09;;;;;;;45.83;6.07;;;;;;;;;;5073656;28;20059;-75
2023/10/26 02:14:36;;;;;;;36.72;5.53;;;;;;;;;;5072435;28;20044;-75
2023/10/26 02:17:04;;;;;;;37.65;4.95;;;;;;;;;;5072551;28;20419;-75
2023/10/26 02:19:31;;;;;;;38.80;5.28;;;;;;;;;;5072132;28;20367;-75
2023/10/26 02:21:57;;;;;;;36.05;5.25;;;;;;;;;;5073764;28;20045;-75
2023/10/26 02:24:24;;;;;;;40.25;4.70;;;;;;;;;;5073113;28;20118;-75
2023/10/26 02:26:51;;;;;;;43.83;5.57;;;;;;;;;;5073445;28;20036;-74
2023/10/26 02:29:18;;;;;;;42.95;5.38;;;;;;;;;;5091354;28;20363;-75
2023/10/26 02:31:44;;;;;;;37.15;5.13;;;;;;;;;;5093454;28;20385;-75
2023/10/26 02:34:11;;;;;;;31.25;4.00;;;;;;;;;;5093504;28;20070;-75
2023/10/26 02:36:38;;;;;;;30.83;4.38;;;;;;;;;;5092117;28;20060;-74
2023/10/26 02:39:05;;;;;;;33.67;4.18;;;;;;;;;;5092065;28;20048;-74
2023/10/26 02:41:31;;;;;;;26.25;4.20;;;;;;;;;;5092145;28;20046;-75
2023/10/26 02:43:58;;;;;;;26.25;3.72;;;;;;;;;;5093607;28;20211;-75
2023/10/26 02:46:25;;;;;;;27.70;4.47;;;;;;;;;;5092922;28;20040;-76
2023/10/26 02:48:52;;;;;;;26.33;4.53;;;;;;;;;;5092101;28;20036;-74
2023/10/26 02:51:18;;;;;;;27.50;4.53;;;;;;;;;;5092792;28;20047;-75
2023/10/26 02:53:45;;;;;;;34.58;5.07;;;;;;;;;;5093107;28;20040;-74
2023/10/26 02:56:12;;;;;;;36.90;5.15;;;;;;;;;;5082502;28;20036;-76
2023/10/26 02:58:38;;;;;;;38.55;5.45;;;;;;;;;;5071512;28;20037;-74
2023/10/26 03:01:05;;;;;;;33.50;4.22;;;;;;;;;;5072729;28;20044;-75
2023/10/26 03:03:32;;;;;;;39.38;5.47;;;;;;;;;;5072770;28;20044;-74
2023/10/26 03:05:59;;;;;;;43.95;4.38;;;;;;;;;;5073108;28;20124;-75
2023/10/26 03:08:26;;;;;;;42.53;4.68;;;;;;;;;;5072311;28;20041;-74
2023/10/26 03:10:53;;;;;;;42.35;5.10;;;;;;;;;;5072680;28;20157;-74
2023/10/26 03:13:20;;;;;;;38.17;5.43;;;;;;;;;;5072078;28;20364;-75
2023/10/26 03:15:46;;;;;;;46.20;5.90;;;;;;;;;;5071147;28;20047;-75
2023/10/26 03:18:14;;;;;;;45.65;6.20;;;;;;;;;;5072389;28;20119;-76
2023/10/26 03:20:41;;;;;;;44.95;6.07;;;;;;;;;;5072402;28;20276;-75
2023/10/26 03:23:08;;;;;;;38.10;5.13;;;;;;;;;;5072381;28;20036;-74
2023/10/26 03:25:35;;;;;;;36.85;6.07;;;;;;;;;;5070896;28;20434;-74
2023/10/26 03:28:01;;;;;;;45.15;5.95;;;;;;;;;;5079168;28;20040;-74
2023/10/26 03:30:28;;;;;;;52.80;6.53;;;;;;;;;;5091871;28;20066;-76
2023/10/26 03:32:55;;;;;;;38.47;5.97;;;;;;;;;;5092591;27;20078;-75
2023/10/26 03:35:22;;;;;;;36.28;4.88;;;;;;;;;;5090695;28;20075;-75
2023/10/26 03:37:49;;;;;;;40.67;6.30;;;;;;;;;;5092456;28;20036;-75
2023/10/26 03:40:16;;;;;;;46.10;4.80;;;;;;;;;;5091725;28;20047;-75
2023/10/26 03:42:42;;;;;;;38.40;6.18;;;;;;;;;;5091550;28;20047;-75
2023/10/26 03:45:10;;;;;;;59.30;6.85;;;;;;;;;;5091772;28;20063;-75
2023/10/26 03:47:38;;;;;;;43.15;5.25;;;;;;;;;;5073930;28;20048;-75
2023/10/26 03:50:05;;;;;;;46.00;6.18;;;;;;;;;;5092382;28;20039;-75
2023/10/26 03:52:32;;;;;;;42.40;5.78;;;;;;;;;;5091614;28;20377;-75
2023/10/26 03:54:59;;;;;;;42.45;5.55;;;;;;;;;;5092132;28;20397;-75
2023/10/26 03:57:26;;;;;;;37.83;4.78;;;;;;;;;;5070976;28;20090;-75
2023/10/26 03:59:52;;;;;;;43.03;6.72;;;;;;;;;;5071500;28;20060;-75
2023/10/26 04:02:19;;;;;;;43.90;4.72;;;;;;;;;;5103746;28;20051;-75
2023/10/26 04:04:49;;;;;;;45.22;6.10;;;;;;;;;;5071636;28;20044;-77
2023/10/26 04:07:17;;;;;;;52.28;6.38;;;;;;;;;;5070109;28;20040;-76
2023/10/26 04:09:43;;;;;;;48.22;6.82;;;;;;;;;;5071619;28;20090;-76
2023/10/26 04:12:10;;;;;;;53.30;6.38;;;;;;;;;;5071269;28;20036;-77
2023/10/26 04:14:37;;;;;;;56.63;7.03;;;;;;;;;;5071490;28;20496;-75
2023/10/26 04:17:05;;;;;;;43.67;5.80;;;;;;;;;;5071386;28;20047;-74
2023/10/26 04:19:33;;;;;;;43.00;5.90;;;;;;;;;;5071351;28;20048;-75
2023/10/26 04:22:00;;;;;;;;;;;;;;;;;;5072121;28;20051;-75
2023/10/26 04:24:27;;;;;;;57.85;7.25;;;;;;;;;;5070990;28;19928;-75
2023/10/26 04:26:54;;;;;;;54.92;7.25;;;;;;;;;;5070104;28;20045;-75
2023/10/26 04:29:20;;;;;;;54.92;5.75;;;;;;;;;;5088605;28;20367;-75
2023/10/26 04:31:47;;;;;;;48.53;5.80;;;;;;;;;;5091462;28;20059;-75
2023/10/26 04:34:15;;;;;;;33.88;5.15;;;;;;;;;;5091354;28;20055;-75
2023/10/26 04:36:41;;;;;;;46.53;6.68;;;;;;;;;;5091257;28;20063;-75
2023/10/26 04:39:09;;;;;;;57.13;6.38;;;;;;;;;;5091070;28;20089;-75
2023/10/26 04:41:36;;;;;;;53.55;6.95;;;;;;;;;;5091226;28;20047;-75
2023/10/26 04:44:05;;;;;;;53.05;6.35;;;;;;;;;;5091724;28;20077;-74
2023/10/26 04:46:31;;;;;;;50.50;6.25;;;;;;;;;;5091003;28;20505;-74
2023/10/26 04:48:58;;;;;;;48.88;6.57;;;;;;;;;;5091332;28;20037;-75
2023/10/26 04:51:25;;;;;;;42.88;6.10;;;;;;;;;;5090797;28;20042;-75
2023/10/26 04:53:52;;;;;;;50.85;7.25;;;;;;;;;;5090998;28;20039;-75
2023/10/26 04:56:19;;;;;;;50.15;6.35;;;;;;;;;;5077839;28;20102;-75
2023/10/26 04:58:48;;;;;;;43.53;5.35;;;;;;;;;;5071108;28;20380;-75
2023/10/26 05:01:14;;;;;;;38.00;5.70;;;;;;;;;;5070645;28;20072;-79
2023/10/26 05:03:41;;;;;;;61.58;6.40;;;;;;;;;;5070796;28;20048;-75
2023/10/26 05:06:08;;;;;;;48.15;6.82;;;;;;;;;;5086629;28;20043;-75
2023/10/26 05:08:35;;;;;;;46.65;6.47;;;;;;;;;;5086590;28;20036;-75
2023/10/26 05:11:02;;;;;;;35.58;5.90;;;;;;;;;;5069801;28;20378;-75
2023/10/26 05:13:29;;;;;;;53.00;6.20;;;;;;;;;;5070506;28;20041;-75
2023/10/26 05:15:56;;;;;;;48.47;6.35;;;;;;;;;;5069671;28;20123;-75
2023/10/26 05:18:23;;;;;;;49.75;6.20;;;;;;;;;;5069183;28;20409;-75
2023/10/26 05:20:50;;;;;;;45.90;7.53;;;;;;;;;;5070959;28;20033;-75
2023/10/26 05:23:16;;;;;;;62.22;6.82;;;;;;;;;;5070355;28;20048;-75
2023/10/26 05:25:43;;;;;;;47.28;6.07;;;;;;;;;;5070680;28;20056;-76
2023/10/26 05:28:10;;;;;;;55.55;7.07;;;;;;;;;;5078465;28;20101;-75
2023/10/26 05:30:37;;;;;;;54.38;7.85;;;;;;;;;;5090783;28;20044;-76
2023/10/26 05:33:04;;;;;;;57.40;7.57;;;;;;;;;;5089704;28;20040;-75
2023/10/26 05:35:31;;;;;;;53.65;6.78;;;;;;;;;;5090348;28;20101;-75
2023/10/26 05:37:57;;;;;;;50.03;6.35;;;;;;;;;;5091049;28;20474;-76
2023/10/26 05:40:24;;;;;;;50.72;6.35;;;;;;;;;;5090367;28;20051;-76
2023/10/26 05:42:51;;;;;;;60.78;7.80;;;;;;;;;;5090913;28;20146;-75
2023/10/26 05:45:18;;;;;;;51.10;7.15;;;;;;;;;;5090373;28;20038;-75
2023/10/26 05:47:50;;;;;;;67.03;7.38;;;;;;;;;;5090606;28;20047;-75
2023/10/26 05:50:17;;;;;;;59.90;7.25;;;;;;;;;;5090563;28;20044;-75
2023/10/26 05:52:43;;;;;;;62.97;7.13;;;;;;;;;;5089243;28;20036;-76
2023/10/26 05:55:10;;;;;;;65.75;7.15;;;;;;;;;;5087400;28;20040;-76
2023/10/26 05:57:37;;;;;;;58.92;6.50;;;;;;;;;;5070307;28;20036;-75
2023/10/26 06:00:06;;;;;;;58.20;7.68;;;;;;;;;;5069236;28;20055;-75
2023/10/26 06:02:33;;;;;;;59.85;6.60;;;;;;;;;;5069633;28;20088;-75
2023/10/26 06:05:00;;;;;;;58.08;7.78;;;;;;;;;;5073879;28;20067;-76
2023/10/26 06:07:27;;;;;;;46.60;6.00;;;;;;;;;;5075478;28;20044;-75
2023/10/26 06:09:54;;;;;;;50.78;6.82;;;;;;;;;;5075579;28;20040;-75
2023/10/26 06:12:20;;;;;;;55.05;6.95;;;;;;;;;;5075235;28;20044;-75
2023/10/26 06:14:47;;;;;;;60.70;7.03;;;;;;;;;;5075677;28;20537;-75
2023/10/26 06:17:14;;;;;;;56.47;7.47;;;;;;;;;;5073670;28;20048;-75
2023/10/26 06:19:40;;;;;;;63.10;6.20;;;;;;;;;;5074287;28;20036;-75
2023/10/26 06:22:07;;;;;;;62.05;6.93;;;;;;;;;;5075075;28;20046;-75
2023/10/26 06:24:34;;;;;;;54.80;7.03;;;;;;;;;;5075235;28;20485;-76
2023/10/26 06:27:01;;;;;;;68.85;7.75;;;;;;;;;;5073952;28;20037;-75
2023/10/26 06:29:28;;;;;;;51.17;6.72;;;;;;;;;;5094999;28;20043;-75
2023/10/26 06:31:54;;;;;;;58.25;7.22;;;;;;;;;;5094115;28;20035;-76
2023/10/26 06:34:21;;;;;;;68.78;7.28;;;;;;;;;;5094909;28;20071;-76
2023/10/26 06:36:49;;;;;;;46.78;8.13;;;;;;;;;;5095365;28;20123;-75
2023/10/26 06:39:16;;;;;;;61.60;7.22;;;;;;;;;;5093609;28;20036;-75
2023/10/26 06:41:42;;;;;;;54.13;6.22;;;;;;;;;;5095275;28;20093;-75
2023/10/26 06:44:09;;;;;;;59.05;7.05;;;;;;;;;;5093476;28;20047;-75
2023/10/26 06:46:36;;;;;;;71.80;8.02;;;;;;;;;;5095133;28;20044;-76
2023/10/26 06:49:03;;;;;;;71.60;8.20;;;;;;;;;;5094950;28;20048;-75
2023/10/26 06:51:48;;;;;;;57.78;7.43;;;;;;;;;;5094808;28;20386;-75
2023/10/26 06:54:15;;;;;;;55.75;7.00;;;;;;;;;;5093471;28;20229;-75
2023/10/26 06:56:42;;;;;;;53.58;7.05;;;;;;;;;;5079002;28;20040;-75
2023/10/26 06:59:09;;;;;;;62.13;7.90;;;;;;;;;;5074268;28;20053;-75
2023/10/26 07:01:38;;;;;;;58.85;6.93;;;;;;;;;;5074513;28;20414;-75
2023/10/26 07:04:25;;;;;;;59.20;7.97;;;;;;;;;;5072869;28;20161;-75
2023/10/26 07:06:52;;;;;;;54.03;7.30;;;;;;;;;;5074693;28;20037;-75
2023/10/26 07:09:19;;;;;;;49.53;6.50;;;;;;;;;;5089872;28;20052;-75
2023/10/26 07:11:46;;;;;;;59.22;6.10;;;;;;;;;;5074544;28;20048;-75
2023/10/26 07:14:13;;;;;;;50.42;6.40;;;;;;;;;;5072934;28;20045;-75
2023/10/26 07:16:39;;;;;;;65.60;7.07;;;;;;;;;;5106843;28;20054;-75
2023/10/26 07:19:06;;;;;;;62.80;6.40;;;;;;;;;;5073913;28;20037;-75
2023/10/26 07:21:33;;;;;;;48.88;6.82;;;;;;;;;;5074069;28;20119;-75
2023/10/26 07:24:00;;;;;;;63.53;7.65;;;;;;;;;;5072966;28;20032;-76
2023/10/26 07:26:27;;;;;;;60.50;6.63;;;;;;;;;;5072543;28;20049;-75
2023/10/26 07:28:56;;;;;;;63.22;7.47;;;;;;;;;;5089546;28;20044;-74
2023/10/26 07:31:23;;;;;;;77.60;7.60;;;;;;;;;;5092879;28;20060;-75
2023/10/26 07:33:50;;;;;;;70.43;8.35;;;;;;;;;;5094285;28;20445;-75
2023/10/26 07:36:17;;;;;;;64.38;6.95;;;;;;;;;;5093906;28;20060;-75
2023/10/26 07:38:44;;;;;;;33.05;5.35;;;;;;;;;;5092953;28;20135;-74
2023/10/26 07:41:11;;;;;;;41.67;5.95;;;;;;;;;;5093574;28;20051;-75
2023/10/26 07:43:38;;;;;;;45.80;5.45;;;;;;;;;;5094120;28;20040;-76
2023/10/26 07:46:05;;;;;;;43.58;6.15;;;;;;;;;;5083722;28;20052;-74
2023/10/26 07:48:32;;;;;;;39.63;4.95;;;;;;;;;;5069437;28;20136;-75
2023/10/26 07:50:58;;;;;;;48.85;6.50;;;;;;;;;;5071990;28;20044;-76
2023/10/26 07:53:28;;;;;;;57.20;6.55;;;;;;;;;;5103948;28;20090;-75
2023/10/26 07:55:57;;;;;;;62.50;7.30;;;;;;;;;;5087396;28;20044;-74
2023/10/26 07:58:27;;;;;;;62.50;7.35;;;;;;;;;;5070173;28;20052;-76
2023/10/26 08:00:54;;;;;;;47.45;6.47;;;;;;;;;;5070749;28;20032;-76
2023/10/26 08:03:24;;;;;;;58.67;6.95;;;;;;;;;;5071252;28;20383;-75
2023/10/26 08:06:00;;;;;;;52.90;7.45;;;;;;;;;;5070558;28;20086;-76
2023/10/26 08:08:27;;;;;;;62.65;7.47;;;;;;;;;;5071426;28;20048;-76
2023/10/26 08:11:16;;;;;;;50.58;6.47;;;;;;;;;;5071433;28;20055;-76
2023/10/26 08:13:43;;;;;;;51.92;8.13;;;;;;;;;;5071377;28;20040;-75
2023/10/26 08:16:10;;;;;;;43.55;5.20;;;;;;;;;;5071051;28;20079;-75
2023/10/26 08:18:57;;;;;;;60.38;6.97;;;;;;;;;;5071400;28;20064;-75
2023/10/26 08:21:24;;;;;;;49.15;5.50;;;;;;;;;;5069691;28;20123;-76
2023/10/26 08:23:51;;;;;;;45.10;6.05;;;;;;;;;;5071618;28;20387;-75
2023/10/26 08:26:18;;;;;;;48.80;5.20;;;;;;;;;;5102898;28;20055;-75
2023/10/26 08:28:44;;;;;;;49.70;5.35;;;;;;;;;;5077947;28;20045;-75
2023/10/26 08:31:11;;;;;;;54.53;6.05;;;;;;;;;;5071054;28;20470;-75
2023/10/26 08:33:38;;;;;;;43.42;6.47;;;;;;;;;;5071236;28;20044;-76
2023/10/26 08:36:06;;;;;;;56.00;5.18;;;;;;;;;;5069410;28;20548;-75
2023/10/26 08:38:32;;;;;;;49.28;5.65;;;;;;;;;;5070235;28;20368;-75
2023/10/26 08:40:59;;;;;;;48.05;5.68;;;;;;;;;;5069916;28;20045;-75
2023/10/26 08:43:28;;;;;;;56.40;5.82;;;;;;;;;;5070932;28;20128;-75
2023/10/26 08:45:58;;;;;;;44.72;5.35;;;;;;;;;;5056991;28;20044;-76
2023/10/26 08:48:25;;;;;;;47.22;6.22;;;;;;;;;;5103244;28;20040;-75
2023/10/26 08:50:52;;;;;;;41.83;5.93;;;;;;;;;;5071506;28;20040;-75
2023/10/26 08:53:19;;;;;;;28.27;4.32;;;;;;;;;;5070689;28;20048;-75
2023/10/26 08:55:52;;;;;;;41.17;4.82;;;;;;;;;;5069790;28;20044;-76
2023/10/26 08:58:20;;;;;;;41.85;4.93;;;;;;;;;;5069672;28;20046;-75
2023/10/26 09:00:47;;;;;;;39.70;5.43;;;;;;;;;;5069766;28;20036;-75
2023/10/26 09:03:13;;;;;;;40.08;4.63;;;;;;;;;;5070911;28;20135;-75
2023/10/26 09:06:01;;;;;;;33.55;4.57;;;;;;;;;;5071166;28;20048;-76
2023/10/26 09:08:28;;;;;;;43.38;5.30;;;;;;;;;;5070933;28;20048;-76
2023/10/26 09:10:55;;;;;;;33.90;5.28;;;;;;;;;;5056731;28;20425;-75
2023/10/26 09:13:29;;;;;;;41.72;5.20;;;;;;;;;;5069400;28;20059;-75
2023/10/26 09:15:58;;;;;;;30.35;4.00;;;;;;;;;;5069679;28;20068;-76
2023/10/26 09:18:26;;;;;;;34.50;4.63;;;;;;;;;;5070491;28;20037;-77
2023/10/26 09:21:03;;;;;;;26.95;5.00;;;;;;;;;;5049820;28;20518;-76
2023/10/26 09:23:32;;;;;;;32.55;3.40;;;;;;;;;;5066504;28;20415;-75
2023/10/26 09:26:00;;;;;;;26.50;3.65;;;;;;;;;;5069851;28;20037;-75
2023/10/26 09:28:27;;;;;;;20.83;3.88;;;;;;;;;;5069152;28;20052;-76
2023/10/26 09:30:57;;;;;;;31.95;4.07;;;;;;;;;;5071117;28;20136;-75
2023/10/26 09:33:24;;;;;;;25.90;4.75;;;;;;;;;;5070404;28;20044;-74
2023/10/26 09:35:52;;;;;;;26.10;4.25;;;;;;;;;;5070751;28;20036;-76
2023/10/26 09:38:39;;;;;;;28.27;4.03;;;;;;;;;;5069224;28;20052;-76
2023/10/26 09:41:11;;;;;;;31.20;4.60;;;;;;;;;;5072842;28;20044;-75
2023/10/26 09:43:40;;;;;;;23.98;3.88;;;;;;;;;;5073519;28;20039;-75
2023/10/26 09:46:11;;;;;;;27.95;4.47;;;;;;;;;;5074030;28;20086;-75
2023/10/26 09:48:40;;;;;;;25.92;3.65;;;;;;;;;;5074605;28;20044;-76
2023/10/26 09:51:10;;;;;;;26.42;3.78;;;;;;;;;;5072709;28;20490;-75
2023/10/26 09:53:40;;;;;;;19.63;3.08;;;;;;;;;;5073312;28;20045;-75
2023/10/26 09:56:22;;;;;;;25.35;4.05;;;;;;;;;;5073865;28;20044;-75
2023/10/26 09:58:51;;;;;;;27.70;4.43;;;;;;;;;;5054131;28;20044;-75
2023/10/26 10:01:36;;;;;;;27.77;3.95;;;;;;;;;;5073986;28;20058;-76
2023/10/26 10:04:07;;;;;;;23.52;3.60;;;;;;;;;;5065379;28;20032;-75
2023/10/26 10:07:06;;;;;;;32.67;4.47;;;;;;;;;;5060916;28;20042;-75
2023/10/26 10:10:05;;;;;;;30.73;4.35;;;;;;;;;;4992313;28;20421;-75
2023/10/26 10:12:33;;;;;;;24.73;4.10;;;;;;;;;;4991810;28;20126;-75
2023/10/26 10:15:06;;;;;;;28.63;4.07;;;;;;;;;;4992371;28;20046;-75
2023/10/26 10:17:45;;;;;;;35.47;5.55;;;;;;;;;;4991814;28;20098;-75
2023/10/26 10:20:17;;;;;;;35.35;4.60;;;;;;;;;;5007984;28;20370;-75
2023/10/26 10:22:44;;;;;;;31.98;4.93;;;;;;;;;;5006542;28;20126;-75
2023/10/26 10:25:12;;;;;;;31.23;4.70;;;;;;;;;;4990980;28;20042;-75
2023/10/26 10:27:39;;;;;;;31.63;4.53;;;;;;;;;;4995198;28;20441;-75
2023/10/26 10:30:11;;;;;;;30.95;4.78;;;;;;;;;;4990421;28;20043;-75
2023/10/26 10:32:44;;;;;;;38.53;5.05;;;;;;;;;;4991191;28;20046;-75
2023/10/26 10:35:21;;;;;;;31.25;4.45;;;;;;;;;;4991534;28;20057;-75
2023/10/26 10:38:17;;;;;;;33.80;4.70;;;;;;;;;;4991614;28;20042;-76
2023/10/26 10:40:57;;;;;;;34.65;4.20;;;;;;;;;;4991336;28;20125;-75
2023/10/26 10:43:43;;;;;;;31.98;4.85;;;;;;;;;;4991204;28;20142;-75
2023/10/26 10:46:20;;;;;;;30.98;4.93;;;;;;;;;;5040184;28;20132;-76
2023/10/26 10:49:05;;;;;;;33.40;4.72;;;;;;;;;;5071721;28;20445;-76
2023/10/26 10:51:37;;;;;;;24.55;4.05;;;;;;;;;;5071202;28;20051;-75
2023/10/26 10:54:06;;;;;;;28.90;4.18;;;;;;;;;;5071368;28;20041;-75
2023/10/26 10:56:53;;;;;;;31.65;4.95;;;;;;;;;;5072946;28;20040;-75
2023/10/26 10:59:22;;;;;;;25.45;3.83;;;;;;;;;;5072302;28;20040;-75
2023/10/26 11:02:12;;;;;;;30.45;3.55;;;;;;;;;;5071614;28;20055;-75
2023/10/26 11:04:52;;;;;;;27.38;3.60;;;;;;;;;;5072675;28;20033;-75
2023/10/26 11:07:30;;;;;;;31.85;3.50;;;;;;;;;;5072460;28;20494;-75
2023/10/26 11:10:01;;;;;;;23.25;3.45;;;;;;;;;;5072956;28;20040;-75
2023/10/26 11:12:29;;;;;;;30.40;4.10;;;;;;;;;;5072602;28;20032;-74
2023/10/26 11:14:56;;;;;;;26.58;3.30;;;;;;;;;;5071619;28;20390;-75
2023/10/26 11:17:24;;;;;;;25.80;4.20;;;;;;;;;;5070990;28;20425;-76
2023/10/26 11:19:52;;;;;;;32.95;4.35;;;;;;;;;;5072803;28;20437;-76
2023/10/26 11:22:20;;;;;;;24.33;3.53;;;;;;;;;;5072242;28;20387;-75
2023/10/26 11:24:47;;;;;;;23.15;3.70;;;;;;;;;;5072813;28;20044;-75
2023/10/26 11:27:17;;;;;;;25.27;3.75;;;;;;;;;;5072268;28;20072;-75
2023/10/26 11:29:45;;;;;;;28.20;3.78;;;;;;;;;;5071323;28;20049;-75
2023/10/26 11:32:25;;;;;;;;;;;;;;;;;;5072805;28;20092;-75
2023/10/26 11:35:13;;;;;;;25.33;4.22;;;;;;;;;;5071392;28;19947;-75
2023/10/26 11:37:41;;;;;;;;;;;;;;;;;;5054944;28;20048;-75
2023/10/26 11:40:09;;;;;;;32.88;5.95;;;;;;;;;;5070806;28;19946;-74
2023/10/26 11:43:01;;;;;;;40.20;11.68;;;;;;;;;;5071067;28;20045;-75
2023/10/26 11:45:28;;;;;;;43.13;13.02;;;;;;;;;;5072034;28;20382;-75
2023/10/26 11:47:56;;;;;;;41.17;13.85;;;;;;;;;;5072014;28;20071;-75
2023/10/26 11:50:27;;;;;;;32.42;5.07;;;;;;;;;;5069778;28;20041;-75
2023/10/26 11:52:56;;;;;;;33.95;4.60;;;;;;;;;;5069545;28;20044;-75
2023/10/26 11:55:24;;;;;;;26.02;3.53;;;;;;;;;;5053671;28;20040;-74
2023/10/26 11:57:52;;;;;;;26.40;3.95;;;;;;;;;;5071588;28;20448;-75
2023/10/26 12:00:19;;;;;;;27.83;5.53;;;;;;;;;;5071730;28;20414;-75
2023/10/26 12:02:46;;;;;;;29.92;4.20;;;;;;;;;;5070703;28;20787;-75
2023/10/26 12:05:16;;;;;;;25.95;3.88;;;;;;;;;;5071394;28;20043;-75
2023/10/26 12:07:44;;;;;;;26.63;3.97;;;;;;;;;;5059007;28;20395;-75
2023/10/26 12:10:12;;;;;;;30.67;4.50;;;;;;;;;;5071236;28;20047;-75
2023/10/26 12:12:39;;;;;;;32.03;4.05;;;;;;;;;;5070350;28;20036;-76
2023/10/26 12:15:07;;;;;;;25.58;4.05;;;;;;;;;;5071039;28;20057;-75
2023/10/26 12:17:34;;;;;;;26.23;3.40;;;;;;;;;;5071489;28;20136;-75
2023/10/26 12:20:03;;;;;;;34.08;4.30;;;;;;;;;;5071556;28;20274;-75
2023/10/26 12:22:30;;;;;;;28.63;3.90;;;;;;;;;;5068702;28;20052;-75
2023/10/26 12:24:57;;;;;;;29.70;4.28;;;;;;;;;;5061317;28;20037;-75
2023/10/26 12:27:24;;;;;;;29.05;4.47;;;;;;;;;;5070726;28;20478;-78
2023/10/26 12:29:50;;;;;;;35.90;3.97;;;;;;;;;;5070308;28;20148;-75
2023/10/26 12:32:19;;;;;;;22.73;3.80;;;;;;;;;;5057111;28;20072;-75
2023/10/26 12:34:46;;;;;;;24.20;4.65;;;;;;;;;;5071167;28;20132;-75
2023/10/26 12:37:13;;;;;;;25.38;3.83;;;;;;;;;;5069664;28;20048;-75
2023/10/26 12:39:39;;;;;;;29.17;4.07;;;;;;;;;;5071262;28;20482;-75
2023/10/26 12:42:06;;;;;;;28.15;3.70;;;;;;;;;;5070894;28;20068;-74
2023/10/26 12:44:33;;;;;;;23.40;4.35;;;;;;;;;;5070055;28;20470;-75
2023/10/26 12:47:00;;;;;;;30.38;5.38;;;;;;;;;;5070988;28;20040;-75
2023/10/26 12:49:27;;;;;;;27.63;4.18;;;;;;;;;;5070695;28;20036;-74
2023/10/26 12:51:53;;;;;;;23.40;3.42;;;;;;;;;;5071550;28;20044;-74
2023/10/26 12:54:20;;;;;;;26.02;4.82;;;;;;;;;;5071123;28;20455;-75
2023/10/26 12:56:47;;;;;;;22.33;4.45;;;;;;;;;;5070872;28;20037;-75
2023/10/26 12:59:13;;;;;;;28.88;5.80;;;;;;;;;;5071278;28;20047;-74
2023/10/26 13:01:40;;;;;;;26.75;4.47;;;;;;;;;;5071150;28;20060;-75
2023/10/26 13:04:07;;;;;;;26.33;5.20;;;;;;;;;;5072475;28;20064;-74
2023/10/26 13:06:34;;;;;;;27.08;4.38;;;;;;;;;;5071598;28;20459;-75
2023/10/26 13:09:04;;;;;;;24.35;4.55;;;;;;;;;;5071217;28;20044;-74
2023/10/26 13:11:31;;;;;;;17.13;3.85;;;;;;;;;;5072422;28;20044;-75
2023/10/26 13:13:58;;;;;;;21.08;3.30;;;;;;;;;;5074356;28;20497;-75
2023/10/26 13:16:25;;;;;;;29.65;4.70;;;;;;;;;;5076122;28;20032;-74
2023/10/26 13:18:52;;;;;;;21.85;3.47;;;;;;;;;;5075533;28;20421;-74
2023/10/26 13:21:19;;;;;;;24.60;4.10;;;;;;;;;;5076159;28;20430;-75
2023/10/26 13:23:45;;;;;;;19.45;3.90;;;;;;;;;;5076578;28;20161;-75
2023/10/26 13:26:12;;;;;;;20.38;3.75;;;;;;;;;;5074853;28;20041;-74
2023/10/26 13:28:39;;;;;;;19.23;3.30;;;;;;;;;;5076559;28;20051;-74
2023/10/26 13:31:06;;;;;;;24.10;3.03;;;;;;;;;;5074658;28;20032;-74
2023/10/26 13:33:34;;;;;;;19.08;3.45;;;;;;;;;;5075208;28;20067;-75
2023/10/26 13:36:02;;;;;;;22.65;3.45;;;;;;;;;;5076499;28;20383;-75
2023/10/26 13:38:28;;;;;;;22.20;3.03;;;;;;;;;;5074670;28;20046;-74
2023/10/26 13:40:55;;;;;;;18.50;3.80;;;;;;;;;;5076305;28;20048;-75
2023/10/26 13:43:22;;;;;;;27.67;3.97;;;;;;;;;;5075853;28;20056;-74
2023/10/26 13:45:49;;;;;;;22.30;3.65;;;;;;;;;;5075995;28;20047;-75
2023/10/26 13:48:15;;;;;;;21.25;2.92;;;;;;;;;;5075974;28;20045;-75
2023/10/26 13:50:42;;;;;;;15.73;2.40;;;;;;;;;;5076148;28;20054;-75
2023/10/26 13:53:13;;;;;;;21.95;3.15;;;;;;;;;;5075450;28;20048;-75
2023/10/26 13:55:40;;;;;;;19.25;3.05;;;;;;;;;;5075817;28;20055;-75
2023/10/26 13:58:07;;;;;;;12.98;2.83;;;;;;;;;;5075437;28;20045;-74
2023/10/26 14:00:37;;;;;;;19.48;3.22;;;;;;;;;;5075840;28;20048;-74
2023/10/26 14:03:04;;;;;;;24.40;2.95;;;;;;;;;;5074079;28;20037;-74
2023/10/26 14:05:31;;;;;;;17.15;2.75;;;;;;;;;;5075904;28;20082;-74
2023/10/26 14:07:58;;;;;;;22.20;4.07;;;;;;;;;;5075626;28;20502;-74
2023/10/26 14:10:25;;;;;;;28.73;3.35;;;;;;;;;;5075109;28;20056;-75
2023/10/26 14:12:52;;;;;;;18.17;2.97;;;;;;;;;;5075647;28;20052;-75
2023/10/26 14:15:19;;;;;;;17.48;2.85;;;;;;;;;;5074947;28;20059;-75
2023/10/26 14:17:46;;;;;;;24.90;3.70;;;;;;;;;;5074196;28;20060;-74
2023/10/26 14:20:12;;;;;;;13.98;2.78;;;;;;;;;;5075216;28;20041;-73
2023/10/26 14:22:39;;;;;;;21.35;3.00;;;;;;;;;;5075255;28;20048;-75
2023/10/26 14:25:06;;;;;;;20.15;3.10;;;;;;;;;;5073105;28;20044;-74
2023/10/26 14:27:33;;;;;;;19.55;2.75;;;;;;;;;;5075348;28;20045;-74
2023/10/26 14:30:00;;;;;;;18.85;3.00;;;;;;;;;;5075286;28;20040;-74
2023/10/26 14:32:26;;;;;;;16.77;2.92;;;;;;;;;;5075019;28;20090;-75
2023/10/26 14:34:53;;;;;;;20.38;3.50;;;;;;;;;;5074064;28;20041;-75
2023/10/26 14:37:20;;;;;;;18.08;3.33;;;;;;;;;;5074700;28;20044;-75
2023/10/26 14:39:46;;;;;;;24.20;4.30;;;;;;;;;;5073877;28;20040;-75